Anzegem, Belgium
Current Conditions -  °F | °C
As of 4:25 PM on Thursday 30 Oct 2014 (Local Time) from EBCV Reporting Station
Few Clouds Few Clouds  
Wind Chill: 63°   Ceiling: Unl
Heat Index: 63°   Visibility: 6mi
Dew Point: 57°   Wind: 3mph
Humidity: 82%   Direction: 200°SSW
Pressure: 30.15"   Gusts: NA
Location:  50.84°N, 3.48°E
Report Text: EBCV 301525Z AUTO 20003KT 9999 FEW100/// 17/14 Q1021 BLU
Loading
Personal Weather Stations






























Interactive Weather Map
Tropical Storm Tracking
New forecast layout! Learn more

10-Day Weather Forecast

Advertisements
Track Severe Weather on mobile